CheckWX is a tool to help pilots better visualize weather data.  It is not intended as a substitute for an official pre-flight weather briefing.

14:14:41 UTC

KMSY TAF
Louis Armstrong New Orleans International Airport
New Orleans, Louisiana, USA
KMSY 151126Z 1512/1618 03007KT P6SM FEW030 BKN250 FM151600 07010G18KT P6SM VCSH SCT040 BKN100 FM160000 11007KT P6SM SCT050 BKN250 FM161100 05005KT P6SM FEW030 SCT100

Sep-15@
12:00 UTC

Sep-15 @ 12:00 UTC

Sep-15@
16:00 UTC

Sep-15 @ 16:00 UTC

KMSY 151126Z 1512/1618 03007KT P6SM FEW030 BKN250
Wind
  • 030° at 7 KTS
Cloud Levels
  • Few at 3,000' AGL
  • Broken at 25,000' AGL

Sep-15@
16:00 UTC

Sep-15 @ 16:00 UTC

Sep-16@
00:00 UTC

Sep-16 @ 00:00 UTC

FM151600 07010G18KT P6SM VCSH SCT040 BKN100

From

From Standard forecast or significant change

Wind
  • 070° at 10 KTS
  • {Gusting to 18 KTS
Cloud Levels
  • Scattered at 4,000' AGL
  • Broken at 10,000' AGL

Sep-16@
00:00 UTC

Sep-16 @ 00:00 UTC

Sep-16@
11:00 UTC

Sep-16 @ 11:00 UTC

FM160000 11007KT P6SM SCT050 BKN250

From

From Standard forecast or significant change

Wind
  • 110° at 7 KTS
Cloud Levels
  • Scattered at 5,000' AGL
  • Broken at 25,000' AGL

Sep-16@
11:00 UTC

Sep-16 @ 11:00 UTC

Sep-16@
18:00 UTC

Sep-16 @ 18:00 UTC

FM161100 05005KT P6SM FEW030 SCT100

From

From Standard forecast or significant change

Wind
  • 050° at 5 KTS
Cloud Levels
  • Few at 3,000' AGL
  • Scattered at 10,000' AGL